Nearby METAR Reports

 

KJOT - Joliet, Illinois, USA
Distance from station: SSW 3mi, 6km
Updated: Fri, 03-Jul-2020 10:55am CDT
Clear
Clear
 Wind from N
Wind: N 5 mph , 7 km/h
Temperature: 86°F , 30°C
Heat Index: 87°F , 31°C
Dew Point: 63°F , 17°C
Humidity: 46%
Barometer: 30.08 inHg , 1018.6 hPa
Clouds: Clear
Visibility: 10 miles , 16 km
2020/07/03 15:55 KJOT 031555Z AUTO 01004KT 10SM CLR 30/17 A3008 RMK AO2 T03010166
KLOT - Romeoville/Chi, Illinois, USA
Distance from station: NE 4mi, 6km
Updated: Fri, 03-Jul-2020 10:55am CDT
Clear
Clear
 Wind from N
Wind: N 5 mph , 7 km/h
Temperature: 84°F , 29°C
Heat Index: 84°F , 29°C
Dew Point: 59°F , 15°C
Humidity: 43%
Barometer: 30.08 inHg , 1018.6 hPa
Clouds: Clear
Visibility: 10 miles , 16 km
2020/07/03 15:55 KLOT 031555Z AUTO 01004KT 10SM CLR 29/15 A3008 RMK AO2 T02920148
 
KC09 - Morris-Washburn, Illinois, USA
Distance from station: SW 16mi, 26km
Updated: Fri, 03-Jul-2020 10:59am CDT
Clear
Clear
 Wind from calm
Wind: Calm
Temperature: 84°F , 29°C
Heat Index: 85°F , 29°C
Dew Point: 63°F , 17°C
Humidity: 48%
Barometer: 30.06 inHg , 1017.9 hPa
Clouds: Clear
Visibility: 10 miles , 16 km
2020/07/03 15:59 KC09 031559Z AUTO 00000KT 10SM CLR 29/17 A3006 RMK AO2
KARR - Chicago/Aurora, Illinois, USA
Distance from station: NW 22mi, 35km
Updated: Fri, 03-Jul-2020 10:52am CDT
Clear
Clear
 Wind from NNE
Wind: NNE 5 mph , 7 km/h
Temperature: 84°F , 29°C
Heat Index: 86°F , 30°C
Dew Point: 66°F , 19°C
Humidity: 55%
Barometer: 30.08 inHg , 1018.6 hPa
Clouds: Clear
Visibility: 9 miles , 14 km
2020/07/03 15:52 KARR 031552Z 03004KT 9SM CLR 29/19 A3008 RMK AO2 SLP180 T02940189
 
KDPA - Chicago/Dupage, Illinois, USA
Distance from station: NNW 25mi, 40km
Updated: Fri, 03-Jul-2020 10:52am CDT
Clear
Clear
 Wind from calm
Wind: Calm
Temperature: 84°F , 29°C
Heat Index: 85°F , 29°C
Dew Point: 63°F , 17°C
Humidity: 48%
Barometer: 30.07 inHg , 1018.3 hPa
Clouds: Clear
Visibility: 10 miles , 16 km
2020/07/03 15:52 KDPA 031552Z 00000KT 10SM CLR 29/17 A3007 RMK AO2 SLP177 T02890172
KMDW - Chicago, Illinois, USA
Distance from station: NE 26mi, 42km
Updated: Fri, 03-Jul-2020 10:53am CDT
Few Clouds
Few Clouds
 Wind from varies
Wind: varies 3 mph , 6 km/h
Temperature: 88°F , 31°C
Dew Point: 55°F , 13°C
Humidity: 33%
Barometer: 30.07 inHg , 1018.3 hPa
Clouds: Few Clouds
Visibility: 10 miles , 16 km
Cloud details: Few Clouds 25000 ft
2020/07/03 15:53 KMDW 031553Z VRB03KT 10SM FEW250 31/13 A3007 RMK AO2 SLP170 T03060128
 
KORD - Chicago O'hare, Illinois, USA
Distance from station: NNE 31mi, 50km
Updated: Fri, 03-Jul-2020 10:51am CDT
Few Clouds
Few Clouds
 Wind from calm
Wind: Calm
Temperature: 88°F , 31°C
Dew Point: 59°F , 15°C
Humidity: 38%
Barometer: 30.06 inHg , 1017.9 hPa
Clouds: Few Clouds
Visibility: 10 miles , 16 km
Cloud details: Few Clouds 5500 ft
Few Clouds 25000 ft
2020/07/03 15:51 KORD 031551Z 00000KT 10SM FEW055 FEW250 31/15 A3006 RMK AO2 SLP173 T03060150 $
KIGQ - Chicago/Lansing, Illinois, USA
Distance from station: E 32mi, 52km
Updated: Fri, 03-Jul-2020 10:55am CDT
Clear
Clear
 Wind from NE
Wind: NE 3 mph , 6 km/h
Temperature: 84°F , 29°C
Heat Index: 85°F , 29°C
Dew Point: 63°F , 17°C
Humidity: 48%
Barometer: 30.09 inHg , 1019 hPa
Clouds: Clear
Visibility: 10 miles , 16 km
2020/07/03 15:55 KIGQ 031555Z AUTO 04003KT 10SM CLR 29/17 A3009 RMK AO2 T02850173
 
KDKB - De Kalb, Illinois, USA
Distance from station: NW 38mi, 61km
Updated: Fri, 03-Jul-2020 10:55am CDT
Clear
Clear
 Wind from NE
Wind: NE 6 mph , 9 km/h
Temperature: 84°F , 29°C
Heat Index: 85°F , 29°C
Dew Point: 64°F , 18°C
Humidity: 51%
Barometer: 30.09 inHg , 1019 hPa
Clouds: Clear
Visibility: 10 miles , 16 km
2020/07/03 15:55 KDKB 031555Z AUTO 04005KT 10SM CLR 29/18 A3009 RMK AO2 T02900178
KIKK - Kankakee, Illinois, USA
Distance from station: SSE 38mi, 61km
Updated: Fri, 03-Jul-2020 10:55am CDT
Clear
Clear
 Wind from ENE
Wind: ENE 5 mph , 7 km/h
Temperature: 86°F , 30°C
Heat Index: 87°F , 31°C
Dew Point: 63°F , 17°C
Humidity: 46%
Barometer: 30.08 inHg , 1018.6 hPa
Clouds: Clear
Visibility: 10 miles , 16 km
2020/07/03 15:55 KIKK 031555Z AUTO 06004KT 10SM CLR 30/17 A3008 RMK AO2 T02950168
 
KGYY - Gary Regional, Indiana, USA
Distance from station: E 38mi, 62km
Updated: Fri, 03-Jul-2020 10:45am CDT
Partly cloudy
Partly cloudy
 Wind from N
Wind: N 6 mph , 9 km/h
Temperature: 82°F , 28°C
Heat Index: 84°F , 29°C
Dew Point: 64°F , 18°C
Humidity: 55%
Barometer: 30.10 inHg , 1019.3 hPa
Clouds: Partly cloudy
Visibility: 10 miles , 16 km
Cloud details: Partly cloudy 15000 ft
2020/07/03 15:45 KGYY 031545Z 36005KT 10SM SCT150 28/18 A3010
KPWK - Palwaukee, Illinois, USA
Distance from station: NNE 40mi, 65km
Updated: Fri, 03-Jul-2020 10:52am CDT
Clear
Clear
 Wind from NE
Wind: NE 5 mph , 7 km/h
Temperature: 88°F , 31°C
Heat Index: 89°F , 32°C
Dew Point: 63°F , 17°C
Humidity: 43%
Barometer: 30.09 inHg , 1019 hPa
Clouds: Clear
Visibility: 10 miles , 16 km
2020/07/03 15:52 KPWK 031552Z 04004KT 10SM CLR 31/17 A3009 RMK AO2 SLP183 T03060167